createdAt,value
2023-04-18T00:02:10.458Z,1.38
2023-04-18T00:04:39.270Z,1.20
2023-04-18T00:07:08.253Z,1.30
2023-04-18T00:09:36.907Z,1.20
2023-04-18T00:12:06.287Z,1.20
2023-04-18T00:14:36.607Z,1.10
2023-04-18T00:17:10.067Z,1.25
2023-04-18T00:22:08.440Z,1.00
2023-04-18T00:24:37.210Z,1.10
2023-04-18T00:27:05.845Z,1.00
2023-04-18T00:29:34.435Z,1.00
2023-04-18T00:32:03.137Z,1.30
2023-04-18T00:34:31.695Z,1.02
2023-04-18T00:37:00.272Z,1.20
2023-04-18T00:39:28.927Z,1.10
2023-04-18T00:41:56.944Z,1.40
2023-04-18T00:44:25.327Z,1.00
2023-04-18T00:46:53.912Z,1.30
2023-04-18T00:49:23.001Z,1.20
2023-04-18T00:51:52.237Z,1.55
2023-04-18T00:54:21.073Z,1.70
2023-04-18T00:56:49.731Z,1.23
2023-04-18T00:59:18.416Z,1.25
2023-04-18T01:01:47.068Z,1.40
2023-04-18T01:04:15.947Z,1.20
2023-04-18T01:06:46.846Z,1.80
2023-04-18T01:09:15.661Z,1.30
2023-04-18T01:11:44.469Z,1.10
2023-04-18T01:14:13.472Z,1.20
2023-04-18T01:16:42.221Z,1.40
2023-04-18T01:19:11.110Z,0.90
2023-04-18T01:21:42.931Z,1.00
2023-04-18T01:24:16.563Z,1.00
2023-04-18T01:26:50.836Z,1.00
2023-04-18T01:29:19.420Z,0.95
2023-04-18T01:31:48.014Z,1.20
2023-04-18T01:34:17.399Z,1.00
2023-04-18T01:36:46.864Z,1.05
2023-04-18T01:39:16.008Z,0.90
2023-04-18T01:41:44.658Z,1.02
2023-04-18T01:44:13.446Z,1.00
2023-04-18T01:46:42.434Z,1.00
2023-04-18T01:49:11.867Z,0.90
2023-04-18T01:51:40.744Z,1.10
2023-04-18T01:54:09.504Z,1.15
2023-04-18T01:56:38.102Z,0.95
2023-04-18T01:59:06.728Z,1.10
2023-04-18T02:01:35.406Z,1.00
2023-04-18T02:04:04.015Z,0.80
2023-04-18T02:06:32.612Z,0.80
2023-04-18T02:09:01.169Z,0.88
2023-04-18T02:11:29.949Z,0.70
2023-04-18T02:14:00.744Z,1.17
2023-04-18T02:16:29.457Z,0.80
2023-04-18T02:18:58.420Z,0.90
2023-04-18T02:21:26.995Z,1.00
2023-04-18T02:23:55.615Z,1.00
2023-04-18T02:26:24.638Z,1.20
2023-04-18T02:28:53.331Z,1.00
2023-04-18T02:31:22.025Z,0.90
2023-04-18T02:33:50.645Z,1.00
2023-04-18T02:36:19.251Z,1.00
2023-04-18T02:38:47.888Z,1.08
2023-04-18T02:41:19.532Z,1.35
2023-04-18T02:43:48.318Z,1.25
2023-04-18T02:46:16.813Z,1.00
2023-04-18T02:48:45.403Z,1.10
2023-04-18T02:51:14.076Z,1.10
2023-04-18T02:53:42.668Z,1.00
2023-04-18T02:56:11.519Z,1.10
2023-04-18T02:58:40.171Z,1.30
2023-04-18T03:01:08.748Z,1.00
2023-04-18T03:03:37.334Z,1.10
2023-04-18T03:06:06.025Z,1.20
2023-04-18T03:08:34.606Z,1.00
2023-04-18T03:11:03.628Z,1.20
2023-04-18T03:13:32.848Z,1.27
2023-04-18T03:16:02.122Z,1.17
2023-04-18T03:18:30.841Z,1.10
2023-04-18T03:20:59.376Z,1.00
2023-04-18T03:23:27.951Z,1.00
2023-04-18T03:25:56.516Z,1.02
2023-04-18T03:28:25.100Z,1.20
2023-04-18T03:30:53.749Z,1.30
2023-04-18T03:33:22.379Z,1.40
2023-04-18T03:35:50.977Z,1.20
2023-04-18T03:38:19.684Z,1.00
2023-04-18T03:40:48.332Z,1.25
2023-04-18T03:43:17.176Z,1.10
2023-04-18T03:45:45.889Z,1.15
2023-04-18T03:48:15.505Z,1.10
2023-04-18T03:50:44.078Z,1.10
2023-04-18T03:53:12.648Z,1.20
2023-04-18T03:55:41.261Z,1.55
2023-04-18T03:58:09.884Z,1.45
2023-04-18T04:00:38.557Z,1.25
2023-04-18T04:03:08.452Z,1.33
2023-04-18T04:05:37.237Z,1.10
2023-04-18T04:08:06.052Z,1.27
2023-04-18T04:10:34.677Z,1.20
2023-04-18T04:13:03.729Z,1.10
2023-04-18T04:15:32.406Z,1.10
2023-04-18T04:18:01.371Z,1.20
2023-04-18T04:20:30.528Z,1.40
2023-04-18T04:23:00.144Z,1.20
2023-04-18T04:25:30.083Z,1.20
2023-04-18T04:27:58.614Z,1.35
2023-04-18T04:30:27.484Z,1.30
2023-04-18T04:32:57.627Z,1.27
2023-04-18T04:35:26.315Z,1.20
2023-04-18T04:37:54.909Z,1.42
2023-04-18T04:40:24.503Z,1.30
2023-04-18T04:42:55.372Z,1.42
2023-04-18T04:45:25.540Z,1.10
2023-04-18T04:47:54.190Z,1.27
2023-04-18T04:50:22.823Z,1.33
2023-04-18T04:52:51.345Z,1.40
2023-04-18T04:55:20.309Z,1.30
2023-04-18T04:57:49.158Z,1.30
2023-04-18T05:00:22.048Z,1.38
2023-04-18T05:02:51.096Z,1.40
2023-04-18T05:05:19.718Z,1.40
2023-04-18T05:07:48.598Z,1.40
2023-04-18T05:10:17.453Z,1.42
2023-04-18T05:12:46.650Z,1.33
2023-04-18T05:15:17.830Z,1.48
2023-04-18T05:17:46.535Z,1.58
2023-04-18T05:20:15.142Z,1.30
2023-04-18T05:22:43.779Z,1.42
2023-04-18T05:25:13.648Z,1.60
2023-04-18T05:27:42.489Z,1.60
2023-04-18T05:30:11.562Z,1.63
2023-04-18T05:32:43.112Z,1.60
2023-04-18T05:35:11.266Z,1.40
2023-04-18T05:37:39.885Z,1.20
2023-04-18T05:40:10.358Z,1.40
2023-04-18T05:42:39.041Z,1.42
2023-04-18T05:45:08.195Z,1.40
2023-04-18T05:47:36.863Z,1.40
2023-04-18T05:50:05.822Z,1.35
2023-04-18T05:52:34.427Z,1.65
2023-04-18T05:55:02.989Z,1.60
2023-04-18T05:57:31.615Z,1.48
2023-04-18T06:00:00.239Z,1.38
2023-04-18T06:02:28.941Z,1.40
2023-04-18T06:04:58.489Z,1.42
2023-04-18T06:07:27.236Z,1.33
2023-04-18T06:09:56.042Z,1.50
2023-04-18T06:12:25.802Z,1.40
2023-04-18T06:14:54.378Z,1.30
2023-04-18T06:17:23.657Z,1.33
2023-04-18T06:19:52.509Z,1.40
2023-04-18T06:22:21.116Z,1.30
2023-04-18T06:24:49.773Z,1.20
2023-04-18T06:27:30.447Z,1.20
2023-04-18T06:29:59.971Z,1.40
2023-04-18T06:32:28.643Z,1.50
2023-04-18T06:34:57.264Z,1.30
2023-04-18T06:37:26.162Z,1.63
2023-04-18T06:39:54.809Z,1.30
2023-04-18T06:42:23.369Z,1.38
2023-04-18T06:44:52.439Z,1.30
2023-04-18T06:47:21.022Z,1.40
2023-04-18T06:49:49.604Z,1.20
2023-04-18T06:52:18.469Z,1.40
2023-04-18T06:54:47.267Z,1.58
2023-04-18T06:57:15.817Z,1.30
2023-04-18T06:59:44.414Z,1.27
2023-04-18T07:02:13.106Z,1.35
2023-04-18T07:04:41.891Z,1.30
2023-04-18T07:07:10.681Z,1.50
2023-04-18T07:09:39.319Z,1.40
2023-04-18T07:12:08.498Z,1.60
2023-04-18T07:14:37.036Z,1.50
2023-04-18T07:17:06.499Z,1.50
2023-04-18T07:19:35.302Z,1.35
2023-04-18T07:22:03.907Z,1.30
2023-04-18T07:24:32.789Z,1.58
2023-04-18T07:27:01.398Z,1.55
2023-04-18T07:29:30.150Z,1.30
2023-04-18T07:31:59.363Z,1.58
2023-04-18T07:34:30.937Z,1.33
2023-04-18T07:36:59.617Z,1.40
2023-04-18T07:39:28.186Z,1.40
2023-04-18T07:41:56.783Z,1.67
2023-04-18T07:44:26.675Z,1.42
2023-04-18T07:46:55.219Z,1.60
2023-04-18T07:49:23.883Z,1.63
2023-04-18T07:51:52.524Z,1.40
2023-04-18T07:54:21.378Z,1.50
2023-04-18T07:56:49.971Z,1.58
2023-04-18T07:59:18.623Z,1.45
2023-04-18T08:01:47.370Z,1.48
2023-04-18T08:04:16.314Z,1.60
2023-04-18T08:06:45.006Z,1.60
2023-04-18T08:09:14.064Z,1.45
2023-04-18T08:11:44.647Z,1.60
2023-04-18T08:14:13.421Z,1.55
2023-04-18T08:16:42.111Z,1.40
2023-04-18T08:19:10.828Z,1.67
2023-04-18T08:21:40.429Z,1.50
2023-04-18T08:24:09.245Z,1.23
2023-04-18T08:26:37.802Z,1.48
2023-04-18T08:29:07.470Z,1.67
2023-04-18T08:31:36.267Z,1.48
2023-04-18T08:34:05.269Z,1.50
2023-04-18T08:36:33.933Z,1.60
2023-04-18T08:39:03.174Z,1.55
2023-04-18T08:41:37.935Z,1.58
2023-04-18T08:44:06.580Z,1.70
2023-04-18T08:46:37.091Z,1.70
2023-04-18T08:49:06.822Z,1.38
2023-04-18T08:51:35.451Z,1.50
2023-04-18T08:54:07.536Z,1.45
2023-04-18T08:56:38.578Z,1.67
2023-04-18T08:59:07.224Z,1.50
2023-04-18T09:01:57.765Z,1.83
2023-04-18T09:04:37.011Z,1.77
2023-04-18T09:07:13.176Z,1.90
2023-04-18T09:09:53.926Z,2.10
2023-04-18T09:12:24.814Z,1.73
2023-04-18T09:14:58.816Z,1.80
2023-04-18T09:17:44.681Z,1.90
2023-04-18T09:20:16.777Z,1.80
2023-04-18T09:22:52.728Z,1.92
2023-04-18T09:25:42.022Z,1.80
2023-04-18T09:28:34.927Z,1.80
2023-04-18T09:31:12.995Z,1.80
2023-04-18T09:33:47.775Z,2.15
2023-04-18T09:36:32.499Z,1.98
2023-04-18T09:39:01.478Z,1.70
2023-04-18T09:41:31.798Z,1.70
2023-04-18T09:44:15.227Z,1.70
2023-04-18T09:49:16.011Z,1.48
2023-04-18T09:51:45.942Z,1.80
2023-04-18T09:54:18.618Z,2.08
2023-04-18T09:56:48.913Z,1.93
2023-04-18T09:59:21.228Z,1.70
2023-04-18T10:01:52.130Z,2.08
2023-04-18T10:04:21.070Z,1.60
2023-04-18T10:06:49.845Z,1.73
2023-04-18T10:09:18.601Z,1.80
2023-04-18T10:11:48.277Z,1.65
2023-04-18T10:14:17.342Z,1.92
2023-04-18T10:16:48.451Z,1.70
2023-04-18T10:19:29.355Z,1.60
2023-04-18T10:21:59.799Z,2.03
2023-04-18T10:24:47.018Z,1.70
2023-04-18T10:27:16.384Z,1.40
2023-04-18T10:29:51.356Z,1.55
2023-04-18T10:32:21.206Z,1.60
2023-04-18T10:34:51.066Z,1.70
2023-04-18T10:37:20.188Z,1.70
2023-04-18T10:39:56.076Z,1.50
2023-04-18T10:42:49.430Z,1.63
2023-04-18T10:45:25.006Z,1.73
2023-04-18T10:48:31.522Z,1.80
2023-04-18T10:51:18.920Z,1.50
2023-04-18T10:53:54.377Z,1.52
2023-04-18T10:56:23.055Z,1.50
2023-04-18T10:58:53.276Z,1.63
2023-04-18T11:01:30.320Z,1.73
2023-04-18T11:04:01.588Z,1.90
2023-04-18T11:06:31.763Z,1.63
2023-04-18T11:09:15.410Z,1.60
2023-04-18T11:11:45.675Z,1.70
2023-04-18T11:14:14.978Z,1.70
2023-04-18T11:16:43.730Z,1.70
2023-04-18T11:19:23.374Z,1.77
2023-04-18T11:21:53.031Z,1.77
2023-04-18T11:24:28.356Z,1.65
2023-04-18T11:26:56.929Z,1.85
2023-04-18T11:29:25.558Z,1.67
2023-04-18T11:31:58.307Z,1.80
2023-04-18T11:34:34.213Z,1.70
2023-04-18T11:37:03.232Z,1.88
2023-04-18T11:39:31.673Z,1.77
2023-04-18T11:42:01.219Z,1.90
2023-04-18T11:44:29.879Z,1.90
2023-04-18T11:46:58.460Z,1.77
2023-04-18T11:49:34.404Z,1.90
2023-04-18T11:52:02.992Z,1.90
2023-04-18T11:54:44.429Z,1.70
2023-04-18T11:57:27.778Z,1.63
2023-04-18T12:00:01.348Z,1.90
2023-04-18T12:05:09.169Z,1.88
2023-04-18T12:07:43.345Z,1.77
2023-04-18T12:10:32.888Z,1.63
2023-04-18T12:13:01.681Z,1.77
2023-04-18T12:15:31.786Z,1.67
2023-04-18T12:18:06.410Z,1.88
2023-04-18T12:20:40.172Z,1.83
2023-04-18T12:23:09.411Z,1.80
2023-04-18T12:25:38.269Z,1.80
2023-04-18T12:28:17.088Z,1.95
2023-04-18T12:30:45.668Z,2.10
2023-04-18T12:33:14.275Z,1.85
2023-04-18T12:35:43.772Z,1.75
2023-04-18T12:38:12.651Z,1.67
2023-04-18T12:40:42.541Z,1.70
2023-04-18T12:43:11.270Z,1.80
2023-04-18T12:45:40.119Z,1.70
2023-04-18T12:48:08.802Z,2.00
2023-04-18T12:50:37.363Z,1.67
2023-04-18T12:53:07.123Z,1.98
2023-04-18T12:55:35.935Z,1.80
2023-04-18T12:58:06.223Z,2.00
2023-04-18T13:00:35.169Z,1.77
2023-04-18T13:03:04.111Z,2.13
2023-04-18T13:05:34.085Z,1.90
2023-04-18T13:10:35.148Z,1.65
2023-04-18T13:13:04.010Z,2.20
2023-04-18T13:15:32.565Z,1.80
2023-04-18T13:18:05.943Z,2.00
2023-04-18T13:23:06.767Z,1.95
2023-04-18T13:25:35.353Z,1.90
2023-04-18T13:28:03.304Z,1.92
2023-04-18T13:30:33.103Z,1.70
2023-04-18T13:33:01.723Z,1.52
2023-04-18T13:35:30.354Z,1.70
2023-04-18T13:37:59.015Z,2.00
2023-04-18T13:40:27.761Z,1.77
2023-04-18T13:42:56.696Z,1.70
2023-04-18T13:45:25.333Z,1.80
2023-04-18T13:47:54.223Z,1.58
2023-04-18T13:50:23.555Z,1.80
2023-04-18T13:52:53.158Z,1.85
2023-04-18T13:55:22.449Z,1.52
2023-04-18T13:57:51.064Z,1.50
2023-04-18T14:00:20.681Z,1.55
2023-04-18T14:02:49.384Z,1.70
2023-04-18T14:05:18.101Z,1.63
2023-04-18T14:07:46.826Z,1.58
2023-04-18T14:10:15.833Z,1.67
2023-04-18T14:12:44.622Z,1.52
2023-04-18T14:15:13.533Z,1.58
2023-04-18T14:17:44.142Z,1.90
2023-04-18T14:20:16.834Z,1.88
2023-04-18T14:22:45.372Z,1.50
2023-04-18T14:25:14.175Z,1.65
2023-04-18T14:27:42.825Z,2.47
2023-04-18T14:30:12.054Z,1.80
2023-04-18T14:32:40.777Z,1.65
2023-04-18T14:35:10.616Z,1.92
2023-04-18T14:37:39.160Z,1.58
2023-04-18T14:40:09.493Z,1.63
2023-04-18T14:42:39.186Z,1.75
2023-04-18T14:45:09.666Z,1.65
2023-04-18T14:47:40.419Z,1.70
2023-04-18T14:50:10.367Z,1.90
2023-04-18T14:52:42.224Z,1.50
2023-04-18T14:55:11.506Z,1.63
2023-04-18T14:57:41.090Z,1.42
2023-04-18T15:00:13.897Z,1.70
2023-04-18T15:02:43.147Z,1.60
2023-04-18T15:05:12.525Z,1.50
2023-04-18T15:07:41.455Z,1.52
2023-04-18T15:10:13.683Z,1.75
2023-04-18T15:12:43.955Z,1.40
2023-04-18T15:15:12.882Z,1.60
2023-04-18T15:17:41.892Z,1.50
2023-04-18T15:20:10.833Z,1.42
2023-04-18T15:22:39.514Z,1.70
2023-04-18T15:25:08.745Z,1.67
2023-04-18T15:27:37.408Z,1.55
2023-04-18T15:30:06.531Z,1.50
2023-04-18T15:32:35.273Z,1.85
2023-04-18T15:35:04.429Z,1.63
2023-04-18T15:37:32.984Z,1.60
2023-04-18T15:40:01.267Z,1.40
2023-04-18T15:42:31.137Z,1.50
2023-04-18T15:44:59.722Z,1.80
2023-04-18T15:47:28.303Z,1.65
2023-04-18T15:49:57.191Z,1.90
2023-04-18T15:52:26.000Z,1.75
2023-04-18T15:54:55.148Z,1.80
2023-04-18T15:57:23.746Z,1.60
2023-04-18T15:59:52.565Z,1.60
2023-04-18T16:02:21.221Z,2.03
2023-04-18T16:04:49.933Z,1.90
2023-04-18T16:07:18.615Z,1.70
2023-04-18T16:09:47.631Z,1.77
2023-04-18T16:12:16.960Z,2.00
2023-04-18T16:14:45.521Z,1.90
2023-04-18T16:17:14.078Z,1.92
2023-04-18T16:19:42.725Z,2.00
2023-04-18T16:22:11.809Z,1.98
2023-04-18T16:24:43.725Z,1.88
2023-04-18T16:27:12.855Z,1.83
2023-04-18T16:29:41.641Z,1.88
2023-04-18T16:32:10.276Z,2.08
2023-04-18T16:34:38.863Z,2.33
2023-04-18T16:37:07.708Z,1.73
2023-04-18T16:39:36.411Z,1.55
2023-04-18T16:42:05.185Z,1.80
2023-04-18T16:44:33.843Z,1.80
2023-04-18T16:47:02.727Z,2.22
2023-04-18T16:49:31.467Z,2.20
2023-04-18T16:52:00.033Z,1.83
2023-04-18T16:54:28.589Z,2.10
2023-04-18T16:56:57.208Z,2.38
2023-04-18T16:59:25.903Z,1.88
2023-04-18T17:01:54.575Z,1.90
2023-04-18T17:04:24.551Z,2.40
2023-04-18T17:06:53.666Z,1.70
2023-04-18T17:09:22.728Z,1.75
2023-04-18T17:11:51.635Z,1.60
2023-04-18T17:14:20.410Z,1.80
2023-04-18T17:16:50.678Z,1.33
2023-04-18T17:19:20.752Z,1.65
2023-04-18T17:21:50.375Z,1.50
2023-04-18T17:24:20.072Z,1.80
2023-04-18T17:26:48.657Z,2.25
2023-04-18T17:29:17.960Z,1.38
2023-04-18T17:31:46.596Z,1.55
2023-04-18T17:34:15.140Z,1.42
2023-04-18T17:36:44.010Z,1.23
2023-04-18T17:39:12.825Z,1.27
2023-04-18T17:41:41.692Z,1.42
2023-04-18T17:44:11.594Z,1.40
2023-04-18T17:46:40.353Z,1.10
2023-04-18T17:49:09.344Z,1.30
2023-04-18T17:51:37.943Z,1.10
2023-04-18T17:54:06.772Z,1.20
2023-04-18T17:56:35.445Z,0.70
2023-04-18T17:59:04.235Z,0.82
2023-04-18T18:01:32.478Z,1.08
2023-04-18T18:04:00.744Z,1.00
2023-04-18T18:06:29.689Z,1.42
2023-04-18T18:08:58.235Z,1.00
2023-04-18T18:11:28.545Z,1.00
2023-04-18T18:13:58.645Z,1.13
2023-04-18T18:16:27.325Z,1.30
2023-04-18T18:18:56.000Z,1.00
2023-04-18T18:21:24.616Z,1.13
2023-04-18T18:23:53.164Z,1.25
2023-04-18T18:26:21.824Z,1.20
2023-04-18T18:28:50.707Z,1.02
2023-04-18T18:31:20.990Z,1.20
2023-04-18T18:33:52.865Z,1.30
2023-04-18T18:36:20.800Z,1.10
2023-04-18T18:38:49.398Z,1.40
2023-04-18T18:41:17.995Z,1.30
2023-04-18T18:43:46.531Z,1.20
2023-04-18T18:46:16.514Z,1.15
2023-04-18T18:48:45.576Z,1.13
2023-04-18T18:51:14.277Z,1.10
2023-04-18T18:53:42.830Z,1.20
2023-04-18T18:56:11.532Z,1.23
2023-04-18T18:58:40.528Z,1.20
2023-04-18T19:01:09.567Z,1.30
2023-04-18T19:03:38.606Z,1.20
2023-04-18T19:06:08.593Z,1.10
2023-04-18T19:08:37.301Z,1.13
2023-04-18T19:11:05.896Z,1.40
2023-04-18T19:13:34.750Z,1.40
2023-04-18T19:16:02.818Z,1.45
2023-04-18T19:18:31.450Z,1.30
2023-04-18T19:20:59.970Z,1.30
2023-04-18T19:23:29.207Z,1.20
2023-04-18T19:25:58.088Z,1.30
2023-04-18T19:28:27.312Z,1.70
2023-04-18T19:30:56.116Z,1.48
2023-04-18T19:33:28.976Z,1.70
2023-04-18T19:35:57.644Z,1.40
2023-04-18T19:38:26.223Z,1.40
2023-04-18T19:40:54.764Z,1.23
2023-04-18T19:43:23.444Z,1.50
2023-04-18T19:45:54.985Z,1.23
2023-04-18T19:48:24.092Z,1.30
2023-04-18T19:50:52.795Z,1.48
2023-04-18T19:53:21.816Z,1.00
2023-04-18T19:55:50.921Z,1.38
2023-04-18T19:58:37.060Z,1.17
2023-04-18T20:01:07.437Z,1.30
2023-04-18T20:03:36.480Z,1.10
2023-04-18T20:06:06.263Z,1.30
2023-04-18T20:08:37.136Z,1.10
2023-04-18T20:11:09.614Z,1.30
2023-04-18T20:13:38.668Z,1.10
2023-04-18T20:16:08.945Z,1.40
2023-04-18T20:18:42.147Z,1.15
2023-04-18T20:23:40.624Z,1.30
2023-04-18T20:26:09.267Z,1.30
2023-04-18T20:28:39.231Z,1.25
2023-04-18T20:31:08.410Z,1.20
2023-04-18T20:33:37.769Z,1.20
2023-04-18T20:36:07.845Z,1.13
2023-04-18T20:38:37.565Z,1.40
2023-04-18T20:41:06.300Z,1.25
2023-04-18T20:43:38.526Z,1.25
2023-04-18T20:46:08.278Z,1.23
2023-04-18T20:48:36.932Z,1.13
2023-04-18T20:51:05.612Z,1.05
2023-04-18T20:53:34.313Z,1.30
2023-04-18T20:56:04.492Z,1.25
2023-04-18T20:58:33.045Z,1.02
2023-04-18T21:01:01.762Z,1.10
2023-04-18T21:03:30.166Z,1.15
2023-04-18T21:05:58.793Z,1.20
2023-04-18T21:08:26.748Z,1.13
2023-04-18T21:10:55.445Z,1.02
2023-04-18T21:13:24.256Z,0.90
2023-04-18T21:15:53.281Z,1.02
2023-04-18T21:18:22.271Z,1.10
2023-04-18T21:20:51.176Z,1.30
2023-04-18T21:23:20.043Z,1.10
2023-04-18T21:25:48.605Z,1.27
2023-04-18T21:28:17.215Z,1.20
2023-04-18T21:30:45.805Z,1.17
2023-04-18T21:33:14.919Z,1.10
2023-04-18T21:35:43.702Z,1.30
2023-04-18T21:38:12.372Z,1.15
2023-04-18T21:40:40.983Z,1.33
2023-04-18T21:43:08.921Z,1.40
2023-04-18T21:45:37.556Z,1.33
2023-04-18T21:48:06.645Z,1.30
2023-04-18T21:50:35.367Z,1.30
2023-04-18T21:53:03.916Z,1.20
2023-04-18T21:55:32.516Z,1.30
2023-04-18T21:58:01.110Z,1.20
2023-04-18T22:00:29.139Z,1.20
2023-04-18T22:02:57.389Z,1.20
2023-04-18T22:05:27.592Z,1.10
2023-04-18T22:07:58.500Z,1.20
2023-04-18T22:10:27.798Z,1.30
2023-04-18T22:12:57.008Z,1.00
2023-04-18T22:15:26.386Z,1.20
2023-04-18T22:17:54.808Z,1.10
2023-04-18T22:20:23.695Z,1.27
2023-04-18T22:22:52.291Z,1.20
2023-04-18T22:25:20.898Z,1.10
2023-04-18T22:27:49.086Z,1.30
2023-04-18T22:30:17.747Z,1.30
2023-04-18T22:32:46.424Z,1.35
2023-04-18T22:35:15.000Z,0.90
2023-04-18T22:37:43.635Z,1.27
2023-04-18T22:40:13.779Z,1.35
2023-04-18T22:42:42.312Z,1.10
2023-04-18T22:45:12.004Z,1.10
2023-04-18T22:47:40.695Z,1.20
2023-04-18T22:50:10.064Z,1.13
2023-04-18T22:52:38.022Z,1.20
2023-04-18T22:55:07.151Z,1.20
2023-04-18T22:57:35.766Z,1.70
2023-04-18T23:00:05.746Z,1.27
2023-04-18T23:02:34.715Z,0.90
2023-04-18T23:05:03.570Z,1.10
2023-04-18T23:07:32.190Z,1.17
2023-04-18T23:10:01.437Z,1.20
2023-04-18T23:12:30.327Z,1.10
2023-04-18T23:14:58.907Z,1.30
2023-04-18T23:17:27.494Z,1.05
2023-04-18T23:19:56.061Z,1.30
2023-04-18T23:22:25.535Z,1.20
2023-04-18T23:24:54.117Z,1.40
2023-04-18T23:27:22.793Z,1.23
2023-04-18T23:29:51.768Z,1.17
2023-04-18T23:32:20.385Z,1.20
2023-04-18T23:34:49.029Z,1.02
2023-04-18T23:37:17.012Z,1.10
2023-04-18T23:39:45.593Z,1.10
2023-04-18T23:42:14.305Z,1.13
2023-04-18T23:44:43.003Z,1.27
2023-04-18T23:47:11.587Z,1.10
2023-04-18T23:49:40.237Z,1.17
2023-04-18T23:52:08.869Z,1.40
2023-04-18T23:54:37.729Z,1.15
2023-04-18T23:57:06.586Z,1.38
2023-04-18T23:59:35.161Z,1.17
